EDT,Max TemperatureF,Mean TemperatureF,Min TemperatureF,Max Dew PointF,MeanDew PointF,Min DewpointF,Max Humidity, Mean Humidity, Min Humidity, Max Sea Level PressureIn, Mean Sea Level PressureIn, Min Sea Level PressureIn, Max VisibilityMiles, Mean VisibilityMiles, Min VisibilityMiles, Max Wind SpeedMPH, Mean Wind SpeedMPH, Max Gust SpeedMPH,PrecipitationIn, CloudCover, Events, WindDirDegrees
2014-4-1,58,50,42,48,39,30,88,66,45,30.10,29.92,29.79,10,10,10,30,17,34,0.01,3,Rain,239
2014-4-2,56,48,41,44,37,32,88,65,52,30.15,30.09,30.02,10,10,8,15,6,,0.00,6,Rain-Thunderstorm,100
2014-4-3,46,44,38,45,42,38,100,99,76,30.04,29.89,29.65,10,6,0,28,17,34,3.01,8,Fog-Rain-Thunderstorm,76
2014-4-4,54,46,35,55,43,33,100,99,87,29.98,29.62,29.46,10,6,1,36,15,50,0.11,7,Rain,181
2014-4-5,50,40,32,34,30,26,99,72,46,30.22,30.15,30.00,10,10,10,23,13,31,0.00,4,,317
2014-4-6,55,42,31,36,30,22,82,61,42,30.21,30.12,29.98,10,10,10,13,6,,0.00,1,,105
2014-4-7,50,43,36,45,39,32,100,90,50,29.96,29.67,29.55,10,8,5,20,10,25,0.88,6,Rain,19
2014-4-8,55,44,34,48,44,34,100,82,60,29.89,29.76,29.66,10,10,6,15,9,21,0.00,4,,321
2014-4-9,60,46,32,42,38,32,100,77,45,30.07,30.00,29.91,10,9,4,14,7,23,0.00,1,,268
2014-4-10,71,56,43,52,45,40,100,67,44,29.99,29.87,29.78,10,10,10,26,14,34,0.00,2,,230
2014-4-11,67,56,43,54,43,30,100,73,25,30.06,30.00,29.94,10,10,10,12,4,17,0.00,2,Rain,236
2014-4-12,78,60,43,57,47,38,88,61,38,30.09,29.97,29.80,10,10,10,29,12,38,0.00,0,,189
2014-4-13,74,66,58,61,59,56,93,76,61,29.82,29.76,29.60,10,10,10,23,14,30,0.00,3,,205
2014-4-14,65,48,31,63,48,31,100,98,82,29.92,29.69,29.47,10,9,2,36,19,44,0.11,8,Rain-Snow,282
2014-4-15,37,32,27,32,23,12,100,76,36,30.27,30.03,29.88,10,10,8,20,14,28,0.00,7,Snow,331
2014-4-16,51,37,24,30,23,19,82,56,35,30.42,30.32,30.24,10,10,10,18,10,28,0.00,0,,145
2014-4-17,66,49,32,43,34,29,89,58,33,30.28,30.26,30.22,10,10,4,16,11,26,0.00,0,,186
2014-4-18,68,56,45,47,41,34,100,61,36,30.33,30.28,30.25,10,10,10,15,5,20,0.00,2,,305
2014-4-19,64,50,35,41,36,29,93,61,38,30.39,30.33,30.28,10,10,10,17,11,,0.00,0,,71
2014-4-20,75,56,37,39,34,26,84,41,20,30.31,30.20,30.10,10,9,1,8,6,,0.00,0,,140
2014-4-21,77,62,48,59,47,38,99,60,39,30.09,29.97,29.83,10,10,10,20,8,23,0.00,4,,207
2014-4-22,57,51,41,59,50,31,100,87,41,30.03,29.84,29.77,10,8,2,22,11,29,0.11,5,Rain,290
2014-4-23,59,46,33,34,32,29,100,61,32,30.15,30.10,30.04,10,10,9,10,7,,0.00,1,,359
2014-4-24,62,54,46,39,32,27,75,44,28,30.10,29.95,29.74,10,10,10,23,12,28,0.00,6,Rain,111
2014-4-25,67,58,48,52,44,30,100,73,33,29.88,29.73,29.61,10,9,4,23,10,28,0.26,5,Rain,345
2014-4-26,68,58,49,53,43,34,100,61,35,29.99,29.93,29.85,10,9,2,14,9,,0.00,4,,336
2014-4-27,66,53,41,42,39,35,88,61,42,30.08,29.97,29.88,10,9,7,25,18,32,0.00,4,,86
2014-4-28,54,49,44,54,47,36,100,92,61,29.91,29.70,29.60,10,8,3,26,19,34,0.22,8,Rain,73
2014-4-29,74,62,50,61,53,39,100,91,30,29.74,29.56,29.49,10,6,2,38,13,47,0.18,6,Rain,155
2014-4-30,61,49,38,54,49,38,100,89,66,29.89,29.79,29.73,10,10,10,20,11,25,0.00,6,,229